Terminal Aerodrome Forecast
Issued by NWS

Home | Current Version | Previous Version | Text Only | Print | Product List | Glossary On
Versions: 1 2 3 4 5 6 7 8 9 10 11 12 13 14 15 16 17 18 19 20 21 22 23 24 25 26 27 28 29 30 31
128
FTUS43 KGLD 142345
TAFMCK
TAF
KMCK 142345Z 1500/1524 VRB05KT P6SM FEW080 SCT250
     FM150200 16009KT P6SM SCT070 BKN200
     FM150700 13009KT P6SM SCT080 BKN200
     FM151500 16015KT P6SM SCT070 BKN250
     FM152300 14010KT P6SM VCTS BKN090CB=

USA.gov is the U.S. government's official web portal to all federal, state and local government web resources and services.